createdAt,value
2018-07-09T00:00:42.451Z,58.26
2018-07-09T00:01:42.475Z,58.17
2018-07-09T00:02:42.593Z,58.45
2018-07-09T00:03:42.609Z,57.68
2018-07-09T00:04:42.434Z,57.68
2018-07-09T00:05:42.437Z,57.88
2018-07-09T00:06:42.495Z,58.45
2018-07-09T00:07:42.554Z,58.36
2018-07-09T00:08:43.160Z,57.68
2018-07-09T00:09:42.392Z,58.55
2018-07-09T00:10:42.378Z,57.97
2018-07-09T00:11:42.361Z,58.17
2018-07-09T00:12:42.377Z,57.75
2018-07-09T00:13:46.420Z,57.40
2018-07-09T00:14:42.363Z,57.40
2018-07-09T00:15:48.547Z,57.59
2018-07-09T00:16:42.330Z,57.08
2018-07-09T00:17:42.370Z,57.28
2018-07-09T00:18:43.203Z,57.50
2018-07-09T00:19:42.319Z,57.11
2018-07-09T00:20:42.347Z,56.98
2018-07-09T00:21:42.338Z,57.01
2018-07-09T00:22:42.312Z,56.24
2018-07-09T00:23:42.913Z,56.89
2018-07-09T00:24:42.260Z,56.51
2018-07-09T00:25:42.238Z,56.89
2018-07-09T00:26:42.275Z,56.22
2018-07-09T00:27:42.236Z,57.08
2018-07-09T00:28:42.228Z,56.98
2018-07-09T00:29:42.209Z,57.37
2018-07-09T00:30:42.222Z,57.08
2018-07-09T00:31:42.329Z,57.28
2018-07-09T00:32:42.185Z,57.28
2018-07-09T00:33:42.180Z,57.18
2018-07-09T00:34:42.192Z,57.18
2018-07-09T00:35:42.158Z,57.08
2018-07-09T00:36:42.152Z,56.60
2018-07-09T00:37:42.197Z,56.89
2018-07-09T00:38:42.680Z,57.06
2018-07-09T00:39:42.118Z,58.69
2018-07-09T00:40:42.103Z,58.01
2018-07-09T00:41:42.093Z,57.43
2018-07-09T00:42:42.098Z,57.43
2018-07-09T00:43:42.225Z,57.63
2018-07-09T00:44:42.070Z,58.04
2018-07-09T00:45:42.057Z,57.24
2018-07-09T00:46:42.061Z,57.06
2018-07-09T00:47:42.061Z,58.01
2018-07-09T00:48:42.037Z,57.15
2018-07-09T00:49:42.037Z,57.53
2018-07-09T00:50:42.029Z,57.34
2018-07-09T00:51:42.023Z,57.34
2018-07-09T00:52:42.008Z,58.20
2018-07-09T00:53:41.993Z,57.98
2018-07-09T00:54:42.202Z,58.17
2018-07-09T00:55:42.112Z,57.60
2018-07-09T00:56:43.325Z,57.89
2018-07-09T00:57:42.894Z,58.27
2018-07-09T00:58:41.954Z,58.17
2018-07-09T00:59:41.929Z,57.79
2018-07-09T01:00:41.963Z,57.70
2018-07-09T01:01:41.920Z,57.50
2018-07-09T01:02:41.917Z,57.79
2018-07-09T01:03:41.900Z,59.33
2018-07-09T01:04:41.882Z,59.71
2018-07-09T01:05:42.904Z,59.33
2018-07-09T01:06:41.882Z,59.33
2018-07-09T01:07:41.852Z,58.46
2018-07-09T01:08:41.861Z,58.75
2018-07-09T01:09:41.833Z,58.94
2018-07-09T01:10:41.823Z,58.94
2018-07-09T01:11:42.039Z,59.52
2018-07-09T01:12:41.848Z,59.80
2018-07-09T01:13:41.800Z,60.19
2018-07-09T01:14:41.782Z,60.96
2018-07-09T01:15:41.791Z,61.11
2018-07-09T01:16:41.815Z,60.16
2018-07-09T01:17:41.811Z,59.97
2018-07-09T01:18:41.759Z,59.68
2018-07-09T01:19:41.747Z,59.77
2018-07-09T01:20:41.731Z,59.30
2018-07-09T01:21:41.736Z,59.48
2018-07-09T01:22:41.840Z,59.87
2018-07-09T01:23:41.914Z,59.97
2018-07-09T01:24:41.694Z,59.77
2018-07-09T01:25:41.681Z,60.35
2018-07-09T01:26:41.688Z,60.35
2018-07-09T01:27:41.703Z,60.16
2018-07-09T01:28:41.654Z,60.83
2018-07-09T01:29:41.644Z,60.54
2018-07-09T01:30:41.644Z,60.16
2018-07-09T01:31:41.641Z,59.87
2018-07-09T01:32:41.679Z,59.30
2018-07-09T01:33:41.610Z,60.83
2018-07-09T01:34:41.607Z,60.51
2018-07-09T01:35:41.593Z,60.06
2018-07-09T01:36:41.598Z,60.22
2018-07-09T01:37:41.739Z,60.13
2018-07-09T01:38:41.558Z,59.84
2018-07-09T01:39:41.554Z,59.17
2018-07-09T01:40:41.535Z,59.75
2018-07-09T01:41:41.544Z,59.65
2018-07-09T01:42:41.543Z,60.64
2018-07-09T01:43:41.756Z,60.41
2018-07-09T01:44:41.503Z,61.76
2018-07-09T01:45:41.489Z,61.37
2018-07-09T01:46:41.475Z,60.80
2018-07-09T01:47:41.482Z,60.13
2018-07-09T01:48:41.460Z,60.70
2018-07-09T01:49:41.471Z,60.61
2018-07-09T01:50:41.439Z,60.51
2018-07-09T01:51:41.436Z,60.32
2018-07-09T01:52:41.407Z,60.99
2018-07-09T01:53:41.494Z,61.08
2018-07-09T01:54:41.398Z,61.66
2018-07-09T01:55:41.391Z,61.66
2018-07-09T01:56:41.430Z,61.94
2018-07-09T01:57:41.406Z,62.49
2018-07-09T01:58:41.756Z,61.85
2018-07-09T01:59:41.384Z,61.18
2018-07-09T02:00:41.340Z,61.18
2018-07-09T02:01:41.322Z,60.89
2018-07-09T02:02:41.325Z,60.89
2018-07-09T02:03:41.321Z,60.32
2018-07-09T02:04:41.285Z,60.41
2018-07-09T02:05:41.293Z,61.18
2018-07-09T02:06:41.283Z,61.18
2018-07-09T02:07:41.295Z,61.63
2018-07-09T02:08:42.264Z,61.05
2018-07-09T02:09:41.263Z,60.86
2018-07-09T02:10:41.266Z,60.77
2018-07-09T02:11:41.230Z,62.01
2018-07-09T02:12:56.540Z,62.49
2018-07-09T02:13:41.196Z,62.23
2018-07-09T02:14:41.237Z,61.44
2018-07-09T02:15:41.183Z,61.44
2018-07-09T02:16:41.178Z,61.63
2018-07-09T02:17:41.159Z,61.15
2018-07-09T02:18:41.160Z,61.82
2018-07-09T02:19:41.143Z,61.72
2018-07-09T02:20:41.258Z,61.72
2018-07-09T02:21:41.117Z,62.40
2018-07-09T02:22:41.105Z,61.91
2018-07-09T02:23:41.097Z,62.49
2018-07-09T02:24:41.107Z,62.11
2018-07-09T02:25:41.080Z,61.44
2018-07-09T02:26:41.075Z,61.82
2018-07-09T02:27:41.063Z,61.63
2018-07-09T02:28:41.041Z,61.63
2018-07-09T02:29:41.042Z,61.25
2018-07-09T02:30:42.768Z,61.34
2018-07-09T02:31:41.048Z,61.15
2018-07-09T02:32:41.044Z,61.05
2018-07-09T02:33:41.002Z,61.15
2018-07-09T02:34:40.997Z,61.15
2018-07-09T02:35:40.967Z,60.77
2018-07-09T02:36:40.973Z,60.86
2018-07-09T02:37:41.098Z,61.22
2018-07-09T02:38:40.959Z,61.12
2018-07-09T02:39:40.942Z,60.64
2018-07-09T02:40:40.921Z,60.96
2018-07-09T02:41:40.906Z,60.83
2018-07-09T02:42:40.896Z,60.83
2018-07-09T02:43:40.906Z,61.79
2018-07-09T02:44:40.885Z,61.31
2018-07-09T02:45:40.868Z,61.51
2018-07-09T02:46:40.853Z,61.60
2018-07-09T02:47:40.853Z,61.41
2018-07-09T02:48:40.987Z,61.60
2018-07-09T02:49:40.815Z,62.37
2018-07-09T02:50:40.821Z,61.60
2018-07-09T02:51:40.805Z,62.08
2018-07-09T02:52:40.898Z,62.17
2018-07-09T02:53:40.792Z,62.74
2018-07-09T02:54:40.925Z,62.84
2018-07-09T02:55:40.752Z,62.55
2018-07-09T02:56:40.750Z,62.46
2018-07-09T02:57:40.773Z,62.17
2018-07-09T02:58:40.737Z,62.74
2018-07-09T02:59:40.718Z,62.94
2018-07-09T03:00:40.800Z,65.23
2018-07-09T03:01:40.727Z,65.71
2018-07-09T03:02:40.706Z,65.52
2018-07-09T03:03:40.702Z,65.33
2018-07-09T03:04:40.668Z,66.76
2018-07-09T03:05:40.692Z,66.38
2018-07-09T03:06:40.644Z,66.76
2018-07-09T03:07:40.640Z,66.38
2018-07-09T03:08:40.630Z,66.28
2018-07-09T03:09:40.618Z,66.76
2018-07-09T03:10:40.664Z,66.09
2018-07-09T03:11:40.594Z,66.19
2018-07-09T03:12:40.576Z,66.09
2018-07-09T03:13:40.572Z,65.81
2018-07-09T03:14:40.569Z,66.00
2018-07-09T03:15:40.550Z,66.38
2018-07-09T03:16:40.568Z,66.00
2018-07-09T03:17:40.518Z,65.04
2018-07-09T03:18:40.524Z,66.47
2018-07-09T03:19:40.521Z,66.57
2018-07-09T03:20:40.535Z,66.57
2018-07-09T03:21:40.481Z,66.86
2018-07-09T03:22:40.460Z,66.67
2018-07-09T03:23:40.468Z,66.57
2018-07-09T03:24:40.456Z,67.14
2018-07-09T03:25:40.577Z,66.76
2018-07-09T03:26:40.437Z,67.05
2018-07-09T03:27:40.424Z,67.91
2018-07-09T03:28:40.410Z,68.68
2018-07-09T03:29:40.503Z,68.77
2018-07-09T03:32:07.554Z,68.49
2018-07-09T03:32:35.200Z,67.53
2018-07-09T03:33:08.053Z,67.82
2018-07-09T03:34:08.052Z,67.72
2018-07-09T03:35:08.780Z,68.39
2018-07-09T03:36:08.008Z,68.20
2018-07-09T03:37:08.331Z,68.29
2018-07-09T03:38:08.004Z,67.72
2018-07-09T03:39:07.977Z,67.91
2018-07-09T03:40:08.145Z,68.29
2018-07-09T03:41:07.975Z,70.40
2018-07-09T03:42:07.984Z,69.92
2018-07-09T03:43:07.935Z,69.15
2018-07-09T03:44:08.096Z,68.96
2018-07-09T03:45:08.154Z,69.25
2018-07-09T03:46:07.912Z,69.54
2018-07-09T03:47:07.893Z,69.38
2018-07-09T03:48:07.894Z,69.06
2018-07-09T03:49:07.891Z,69.44
2018-07-09T03:50:07.871Z,69.44
2018-07-09T03:51:07.862Z,70.01
2018-07-09T03:52:07.854Z,69.54
2018-07-09T03:53:07.829Z,69.86
2018-07-09T03:54:08.903Z,69.76
2018-07-09T03:55:07.843Z,69.57
2018-07-09T03:56:07.838Z,69.54
2018-07-09T03:57:07.790Z,69.82
2018-07-09T03:58:07.779Z,69.82
2018-07-09T03:59:19.513Z,69.38
2018-07-09T04:00:07.751Z,68.87
2018-07-09T04:01:07.751Z,70.11
2018-07-09T04:02:07.953Z,70.01
2018-07-09T04:03:07.842Z,69.92
2018-07-09T04:04:07.714Z,69.92
2018-07-09T04:05:07.713Z,69.73
2018-07-09T04:06:07.740Z,70.40
2018-07-09T04:07:07.683Z,70.59
2018-07-09T04:08:07.715Z,70.50
2018-07-09T04:09:07.679Z,70.30
2018-07-09T04:10:07.648Z,70.68
2018-07-09T04:11:07.630Z,71.16
2018-07-09T04:12:07.630Z,70.43
2018-07-09T04:13:07.971Z,71.07
2018-07-09T04:14:08.489Z,70.97
2018-07-09T04:15:07.631Z,70.81
2018-07-09T04:16:18.299Z,71.48
2018-07-09T04:17:12.431Z,71.30
2018-07-09T04:18:07.619Z,71.68
2018-07-09T04:19:07.560Z,72.63
2018-07-09T04:21:55.870Z,72.25
2018-07-09T04:22:55.697Z,72.34
2018-07-09T04:23:55.703Z,71.68
2018-07-09T04:31:06.830Z,72.25
2018-07-09T04:31:40.491Z,73.40
2018-07-09T04:32:40.440Z,72.92
2018-07-09T04:33:39.769Z,73.30
2018-07-09T04:34:39.827Z,72.06
2018-07-09T04:35:39.823Z,72.06
2018-07-09T04:36:39.828Z,72.92
2018-07-09T04:37:39.738Z,72.92
2018-07-09T04:38:39.775Z,72.83
2018-07-09T04:39:39.810Z,73.30
2018-07-09T04:40:39.900Z,73.88
2018-07-09T04:41:40.682Z,73.88
2018-07-09T04:42:40.485Z,73.11
2018-07-09T04:43:39.888Z,73.30
2018-07-09T04:44:39.804Z,73.50
2018-07-09T04:45:39.711Z,73.30
2018-07-09T04:46:39.892Z,73.02
2018-07-09T04:47:39.753Z,72.92
2018-07-09T04:48:39.848Z,72.19
2018-07-09T04:49:39.926Z,72.34
2018-07-09T04:50:41.525Z,72.92
2018-07-09T04:51:39.709Z,73.44
2018-07-09T04:52:39.818Z,73.02
2018-07-09T04:53:39.652Z,73.02
2018-07-09T04:54:39.783Z,72.38
2018-07-09T04:55:40.822Z,72.92
2018-07-09T04:56:39.558Z,72.29
2018-07-09T04:57:40.701Z,73.24
2018-07-09T04:58:39.755Z,73.30
2018-07-09T04:59:39.551Z,72.96
2018-07-09T05:00:39.493Z,72.48
2018-07-09T05:01:39.912Z,71.91
2018-07-09T05:02:39.769Z,71.42
2018-07-09T05:03:40.201Z,71.33
2018-07-09T05:04:39.482Z,70.85
2018-07-09T05:05:40.084Z,70.76
2018-07-09T05:06:39.514Z,70.37
2018-07-09T05:07:39.615Z,70.95
2018-07-09T05:08:39.505Z,70.47
2018-07-09T05:09:42.271Z,70.56
2018-07-09T05:10:39.392Z,70.37
2018-07-09T05:11:50.173Z,70.66
2018-07-09T05:12:39.444Z,70.47
2018-07-09T05:13:39.358Z,71.81
2018-07-09T05:14:39.366Z,72.96
2018-07-09T05:15:39.410Z,72.29
2018-07-09T05:16:39.316Z,72.29
2018-07-09T05:17:39.355Z,72.48
2018-07-09T05:18:39.342Z,73.15
2018-07-09T05:19:39.366Z,72.96
2018-07-09T05:20:39.307Z,72.38
2018-07-09T05:21:39.333Z,73.44
2018-07-09T05:22:39.264Z,74.11
2018-07-09T05:23:39.252Z,74.87
2018-07-09T05:24:39.243Z,74.77
2018-07-09T05:25:39.328Z,74.87
2018-07-09T05:26:40.152Z,74.40
2018-07-09T05:27:39.229Z,74.20
2018-07-09T05:28:39.213Z,73.72
2018-07-09T05:29:39.301Z,74.11
2018-07-09T05:30:39.248Z,74.01
2018-07-09T05:31:39.195Z,74.01
2018-07-09T05:32:39.325Z,74.20
2018-07-09T05:33:39.215Z,74.20
2018-07-09T05:34:39.165Z,73.91
2018-07-09T05:35:40.748Z,74.01
2018-07-09T05:36:42.149Z,73.44
2018-07-09T05:37:43.057Z,73.05
2018-07-09T05:38:39.119Z,72.96
2018-07-09T05:39:40.241Z,72.61
2018-07-09T05:40:39.177Z,72.80
2018-07-09T05:41:39.133Z,73.24
2018-07-09T05:42:39.165Z,73.95
2018-07-09T05:43:39.308Z,74.24
2018-07-09T05:44:39.132Z,74.43
2018-07-09T05:45:39.173Z,73.86
2018-07-09T05:46:39.271Z,73.38
2018-07-09T05:47:39.221Z,74.33
2018-07-09T05:48:39.537Z,74.43
2018-07-09T05:49:38.990Z,75.01
2018-07-09T05:50:39.064Z,74.15
2018-07-09T05:51:39.035Z,73.95
2018-07-09T05:52:38.946Z,74.62
2018-07-09T05:53:38.984Z,74.15
2018-07-09T05:54:39.492Z,74.33
2018-07-09T05:55:39.010Z,76.06
2018-07-09T05:56:39.622Z,75.96
2018-07-09T05:57:38.910Z,75.58
2018-07-09T05:58:38.946Z,75.58
2018-07-09T05:59:38.884Z,75.48
2018-07-09T06:00:39.143Z,75.29
2018-07-09T06:01:39.502Z,75.58
2018-07-09T06:02:38.864Z,75.77
2018-07-09T06:03:39.503Z,76.25
2018-07-09T06:04:38.839Z,75.96
2018-07-09T06:05:38.920Z,75.29
2018-07-09T06:06:38.979Z,75.20
2018-07-09T06:07:38.816Z,75.39
2018-07-09T06:08:38.805Z,76.35
2018-07-09T06:09:41.027Z,76.15
2018-07-09T06:10:38.789Z,75.68
2018-07-09T06:11:38.769Z,76.82
2018-07-09T06:12:38.771Z,76.35
2018-07-09T06:13:39.056Z,76.44
2018-07-09T06:14:38.766Z,75.96
2018-07-09T06:15:38.745Z,75.48
2018-07-09T06:16:38.717Z,75.68
2018-07-09T06:17:38.795Z,76.44
2018-07-09T06:18:38.707Z,76.73
2018-07-09T06:19:38.724Z,76.64
2018-07-09T06:20:38.680Z,76.73
2018-07-09T06:21:38.690Z,76.29
2018-07-09T06:22:38.688Z,76.86
2018-07-09T06:23:38.652Z,77.34
2018-07-09T06:24:38.644Z,77.73
2018-07-09T06:25:38.648Z,77.25
2018-07-09T06:26:39.508Z,76.86
2018-07-09T06:27:38.633Z,76.10
2018-07-09T06:28:38.610Z,76.67
2018-07-09T06:29:38.591Z,77.53
2018-07-09T06:30:38.625Z,77.73
2018-07-09T06:31:38.675Z,76.86
2018-07-09T06:32:38.584Z,75.62
2018-07-09T06:33:38.622Z,75.52
2018-07-09T06:34:38.536Z,76.10
2018-07-09T06:35:38.592Z,76.86
2018-07-09T06:36:40.738Z,75.33
2018-07-09T06:37:38.521Z,76.39
2018-07-09T06:38:38.517Z,76.04
2018-07-09T06:39:39.504Z,75.37
2018-07-09T06:40:38.491Z,75.65
2018-07-09T06:41:38.492Z,75.37
2018-07-09T06:42:38.506Z,75.27
2018-07-09T06:43:38.468Z,75.37
2018-07-09T06:44:38.487Z,75.27
2018-07-09T06:45:38.979Z,75.08
2018-07-09T06:46:38.465Z,75.75
2018-07-09T06:47:38.436Z,75.37
2018-07-09T06:48:39.435Z,74.98
2018-07-09T06:49:38.648Z,74.98
2018-07-09T06:50:38.408Z,74.51
2018-07-09T06:51:38.524Z,74.41
2018-07-09T06:52:38.378Z,74.69
2018-07-09T06:53:38.376Z,74.02
2018-07-09T06:54:38.373Z,74.35
2018-07-09T06:55:38.365Z,74.41
2018-07-09T06:56:38.353Z,73.83
2018-07-09T06:57:38.336Z,74.12
2018-07-09T06:58:38.341Z,73.87
2018-07-09T06:59:38.352Z,73.87
2018-07-09T07:00:39.211Z,73.97
2018-07-09T07:01:38.324Z,73.10
2018-07-09T07:02:38.552Z,73.20
2018-07-09T07:03:38.390Z,73.58
2018-07-09T07:04:38.265Z,73.30
2018-07-09T07:05:38.413Z,72.63
2018-07-09T07:06:38.473Z,73.30
2018-07-09T07:07:38.241Z,73.49
2018-07-09T07:08:38.252Z,73.39
2018-07-09T07:09:39.181Z,73.10
2018-07-09T07:10:38.231Z,73.68
2018-07-09T07:11:38.292Z,73.20
2018-07-09T07:12:38.241Z,73.49
2018-07-09T07:13:38.208Z,73.58
2018-07-09T07:14:38.181Z,73.58
2018-07-09T07:15:38.172Z,73.68
2018-07-09T07:16:38.176Z,74.16
2018-07-09T07:17:38.215Z,73.49
2018-07-09T07:18:38.297Z,73.49
2018-07-09T07:19:38.164Z,73.49
2018-07-09T07:20:38.222Z,73.20
2018-07-09T07:21:38.127Z,73.68
2018-07-09T07:22:38.126Z,72.81
2018-07-09T07:23:38.109Z,73.00
2018-07-09T07:24:38.125Z,72.33
2018-07-09T07:25:38.170Z,71.70
2018-07-09T07:26:38.136Z,72.18
2018-07-09T07:27:38.219Z,72.56
2018-07-09T07:28:38.413Z,71.98
2018-07-09T07:29:38.086Z,71.98
2018-07-09T07:30:38.074Z,71.61
2018-07-09T07:31:38.065Z,71.22
2018-07-09T07:32:38.121Z,71.89
2018-07-09T07:33:38.166Z,71.80
2018-07-09T07:34:38.045Z,71.41
2018-07-09T07:35:38.034Z,71.31
2018-07-09T07:36:39.574Z,72.18
2018-07-09T07:37:37.999Z,71.98
2018-07-09T07:38:38.030Z,72.37
2018-07-09T07:39:37.987Z,72.18
2018-07-09T07:40:37.977Z,71.61
2018-07-09T07:41:37.985Z,71.31
2018-07-09T07:42:37.959Z,71.22
2018-07-09T07:43:38.101Z,71.12
2018-07-09T07:44:37.961Z,71.61
2018-07-09T07:45:37.934Z,71.51
2018-07-09T07:46:37.935Z,71.80
2018-07-09T07:47:37.934Z,72.66
2018-07-09T07:48:38.201Z,72.18
2018-07-09T07:49:37.911Z,71.41
2018-07-09T07:50:38.043Z,70.74
2018-07-09T07:51:37.890Z,70.36
2018-07-09T07:52:37.877Z,70.93
2018-07-09T07:53:37.878Z,71.22
2018-07-09T07:54:37.916Z,71.03
2018-07-09T07:55:37.855Z,70.36
2018-07-09T07:56:37.859Z,70.20
2018-07-09T07:57:37.848Z,70.26
2018-07-09T07:58:37.842Z,70.29
2018-07-09T07:59:37.823Z,70.39
2018-07-09T08:00:37.954Z,69.53
2018-07-09T08:01:37.798Z,69.81
2018-07-09T08:02:37.801Z,68.95
2018-07-09T08:03:37.786Z,68.95
2018-07-09T08:04:37.783Z,68.57
2018-07-09T08:05:37.784Z,68.57
2018-07-09T08:06:37.784Z,68.66
2018-07-09T08:07:37.759Z,68.47
2018-07-09T08:08:37.761Z,68.85
2018-07-09T08:09:37.813Z,68.37
2018-07-09T08:10:37.773Z,68.66
2018-07-09T08:11:48.566Z,68.18
2018-07-09T08:13:37.763Z,67.93
2018-07-09T08:14:37.709Z,68.12
2018-07-09T08:15:38.119Z,67.25
2018-07-09T08:16:37.696Z,67.16
2018-07-09T08:17:37.695Z,67.74
2018-07-09T08:18:37.712Z,67.64
2018-07-09T08:19:37.680Z,68.12
2018-07-09T08:20:37.653Z,68.12
2018-07-09T08:21:37.651Z,67.16
2018-07-09T08:22:37.645Z,67.74
2018-07-09T08:23:37.649Z,68.12
2018-07-09T08:24:37.644Z,67.93
2018-07-09T08:25:37.672Z,68.21
2018-07-09T08:26:37.636Z,68.31
2018-07-09T08:27:48.555Z,68.70
2018-07-09T08:30:10.458Z,67.96
2018-07-09T08:31:10.352Z,67.68
2018-07-09T08:32:10.386Z,67.00
2018-07-09T08:33:10.201Z,67.58
2018-07-09T08:34:10.225Z,67.19
2018-07-09T08:35:10.199Z,68.06
2018-07-09T08:36:10.204Z,68.25
2018-07-09T08:37:10.192Z,67.80
2018-07-09T08:38:10.197Z,67.32
2018-07-09T08:39:10.158Z,66.55
2018-07-09T08:40:10.290Z,65.30
2018-07-09T08:41:10.158Z,64.86
2018-07-09T08:42:10.148Z,65.63
2018-07-09T08:43:10.144Z,64.76
2018-07-09T08:44:10.136Z,64.82
2018-07-09T08:45:10.155Z,64.92
2018-07-09T08:46:10.154Z,64.86
2018-07-09T08:47:10.124Z,64.82
2018-07-09T08:48:10.107Z,64.66
2018-07-09T08:49:10.103Z,64.66
2018-07-09T08:50:10.090Z,64.76
2018-07-09T08:51:10.097Z,64.95
2018-07-09T08:52:10.084Z,65.63
2018-07-09T08:53:10.083Z,65.33
2018-07-09T08:54:10.063Z,65.88
2018-07-09T08:55:10.081Z,65.88
2018-07-09T08:56:10.090Z,66.52
2018-07-09T08:57:10.045Z,66.61
2018-07-09T08:58:10.080Z,66.81
2018-07-09T08:59:10.033Z,66.65
2018-07-09T09:00:10.024Z,66.94
2018-07-09T09:01:10.046Z,66.55
2018-07-09T09:02:10.041Z,66.65
2018-07-09T09:03:10.128Z,66.65
2018-07-09T09:04:10.025Z,66.27
2018-07-09T09:05:10.025Z,66.84
2018-07-09T09:06:09.990Z,67.19
2018-07-09T09:07:10.126Z,67.19
2018-07-09T09:08:09.993Z,68.15
2018-07-09T09:09:09.980Z,68.35
2018-07-09T09:10:10.058Z,68.06
2018-07-09T09:11:09.961Z,68.25
2018-07-09T09:12:09.955Z,67.96
2018-07-09T09:13:09.953Z,68.54
2018-07-09T09:14:09.937Z,67.58
2018-07-09T09:15:09.934Z,67.38
2018-07-09T09:16:09.923Z,68.25
2018-07-09T09:17:09.903Z,68.15
2018-07-09T09:18:09.966Z,68.35
2018-07-09T09:19:09.933Z,68.63
2018-07-09T09:20:09.898Z,68.44
2018-07-09T09:21:09.890Z,68.06
2018-07-09T09:22:09.889Z,68.25
2018-07-09T09:23:09.880Z,68.15
2018-07-09T09:24:09.951Z,67.77
2018-07-09T09:25:09.855Z,67.86
2018-07-09T09:26:09.855Z,68.25
2018-07-09T09:27:09.848Z,68.06
2018-07-09T09:28:09.842Z,68.54
2018-07-09T09:29:09.821Z,68.15
2018-07-09T09:30:09.860Z,68.19
2018-07-09T09:31:09.829Z,68.35
2018-07-09T09:32:09.807Z,68.73
2018-07-09T09:33:09.795Z,68.25
2018-07-09T09:34:09.796Z,68.15
2018-07-09T09:35:09.871Z,68.54
2018-07-09T09:36:09.790Z,68.48
2018-07-09T09:37:09.778Z,68.09
2018-07-09T09:38:09.784Z,68.29
2018-07-09T09:39:09.787Z,68.38
2018-07-09T09:40:09.798Z,68.57
2018-07-09T09:41:09.742Z,69.15
2018-07-09T09:42:09.769Z,69.34
2018-07-09T09:43:09.813Z,68.76
2018-07-09T09:44:09.720Z,68.67
2018-07-09T09:45:09.756Z,68.67
2018-07-09T09:46:09.726Z,69.34
2018-07-09T09:47:09.690Z,68.76
2018-07-09T09:48:09.707Z,67.90
2018-07-09T09:49:09.687Z,68.38
2018-07-09T09:50:09.764Z,69.44
2018-07-09T09:51:09.670Z,69.34
2018-07-09T09:52:09.681Z,68.86
2018-07-09T09:53:09.648Z,68.38
2018-07-09T09:54:09.652Z,68.86
2018-07-09T09:55:09.664Z,68.86
2018-07-09T09:56:09.656Z,68.38
2018-07-09T09:57:09.627Z,68.48
2018-07-09T09:58:09.621Z,68.67
2018-07-09T09:59:09.697Z,68.38
2018-07-09T10:00:09.614Z,68.09
2018-07-09T10:01:11.425Z,67.61
2018-07-09T10:02:09.638Z,67.22
2018-07-09T10:03:09.590Z,67.99
2018-07-09T10:04:09.585Z,67.99
2018-07-09T10:05:09.579Z,67.61
2018-07-09T10:06:09.589Z,67.13
2018-07-09T10:07:09.588Z,66.84
2018-07-09T10:08:09.567Z,67.51
2018-07-09T10:09:10.664Z,67.13
2018-07-09T10:10:09.528Z,67.32
2018-07-09T10:11:09.531Z,67.61
2018-07-09T10:12:09.558Z,68.38
2018-07-09T10:13:09.519Z,67.80
2018-07-09T10:14:09.517Z,67.80
2018-07-09T10:15:09.495Z,68.09
2018-07-09T10:16:09.492Z,68.09
2018-07-09T10:17:09.632Z,68.48
2018-07-09T10:18:09.546Z,68.19
2018-07-09T10:19:09.475Z,68.29
2018-07-09T10:20:09.494Z,68.29
2018-07-09T10:21:09.457Z,68.25
2018-07-09T10:22:09.467Z,67.96
2018-07-09T10:23:10.021Z,67.99
2018-07-09T10:24:09.456Z,68.38
2018-07-09T10:25:09.428Z,68.44
2018-07-09T10:26:09.428Z,68.63
2018-07-09T10:27:09.757Z,68.86
2018-07-09T10:28:09.422Z,68.44
2018-07-09T10:29:09.406Z,68.57
2018-07-09T10:30:09.402Z,68.67
2018-07-09T10:31:09.384Z,69.06
2018-07-09T10:32:09.377Z,69.53
2018-07-09T10:33:09.393Z,69.63
2018-07-09T10:34:09.384Z,69.15
2018-07-09T10:35:09.375Z,69.92
2018-07-09T10:36:09.347Z,70.59
2018-07-09T10:37:09.350Z,69.92
2018-07-09T10:38:09.331Z,69.69
2018-07-09T10:39:09.370Z,69.89
2018-07-09T10:40:09.379Z,70.56
2018-07-09T10:41:09.320Z,69.69
2018-07-09T10:42:09.869Z,69.79
2018-07-09T10:43:09.352Z,69.73
2018-07-09T10:44:09.282Z,69.89
2018-07-09T10:45:09.338Z,69.40
2018-07-09T10:46:09.299Z,69.50
2018-07-09T10:47:09.290Z,69.98
2018-07-09T10:48:09.289Z,70.98
2018-07-09T10:49:09.331Z,71.08
2018-07-09T10:50:09.259Z,70.59
2018-07-09T10:51:09.311Z,69.73
2018-07-09T10:52:09.228Z,70.40
2018-07-09T10:53:09.232Z,71.26
2018-07-09T10:54:09.364Z,70.59
2018-07-09T10:55:09.247Z,69.92
2018-07-09T10:56:09.370Z,70.40
2018-07-09T10:57:10.332Z,70.01
2018-07-09T10:58:09.179Z,70.21
2018-07-09T10:59:09.184Z,69.92
2018-07-09T11:00:09.177Z,71.08
2018-07-09T11:01:09.167Z,70.78
2018-07-09T11:02:09.181Z,70.59
2018-07-09T11:03:09.144Z,70.21
2018-07-09T11:04:09.163Z,70.50
2018-07-09T11:05:09.142Z,70.40
2018-07-09T11:06:09.123Z,69.92
2018-07-09T11:07:09.129Z,70.50
2018-07-09T11:08:09.111Z,71.36
2018-07-09T11:09:09.101Z,70.15
2018-07-09T11:10:09.108Z,70.15
2018-07-09T11:11:09.085Z,69.47
2018-07-09T11:12:09.073Z,69.85
2018-07-09T11:13:09.079Z,69.76
2018-07-09T11:14:09.071Z,68.64
2018-07-09T11:15:09.115Z,68.74
2018-07-09T11:16:09.064Z,67.87
2018-07-09T11:17:09.063Z,68.06
2018-07-09T11:18:09.042Z,68.74
2018-07-09T11:19:09.031Z,68.51
2018-07-09T11:20:09.024Z,68.35
2018-07-09T11:21:09.066Z,68.26
2018-07-09T11:22:09.087Z,68.06
2018-07-09T11:23:09.034Z,68.35
2018-07-09T11:24:09.003Z,68.44
2018-07-09T11:25:09.009Z,67.97
2018-07-09T11:26:09.025Z,67.87
2018-07-09T11:27:08.994Z,68.06
2018-07-09T11:28:08.990Z,68.74
2018-07-09T11:29:09.006Z,68.16
2018-07-09T11:30:08.972Z,67.19
2018-07-09T11:31:08.962Z,67.29
2018-07-09T11:32:08.983Z,66.91
2018-07-09T11:33:08.981Z,67.19
2018-07-09T11:34:08.971Z,67.68
2018-07-09T11:35:08.939Z,68.06
2018-07-09T11:36:09.013Z,67.77
2018-07-09T11:37:09.124Z,67.19
2018-07-09T11:38:08.923Z,67.33
2018-07-09T11:39:08.928Z,66.81
2018-07-09T11:40:08.901Z,66.17
2018-07-09T11:41:08.899Z,67.42
2018-07-09T11:42:08.971Z,67.00
2018-07-09T11:43:09.020Z,67.03
2018-07-09T11:44:08.911Z,66.52
2018-07-09T11:45:08.889Z,66.62
2018-07-09T11:46:08.879Z,66.52
2018-07-09T11:47:08.883Z,67.10
2018-07-09T11:48:08.925Z,66.81
2018-07-09T11:49:08.850Z,66.71
2018-07-09T11:50:08.851Z,66.62
2018-07-09T11:51:08.850Z,66.71
2018-07-09T11:52:08.860Z,66.97
2018-07-09T11:53:08.831Z,67.45
2018-07-09T11:54:08.815Z,67.26
2018-07-09T11:55:08.814Z,67.65
2018-07-09T11:56:08.809Z,67.93
2018-07-09T11:57:09.292Z,68.41
2018-07-09T11:58:09.390Z,68.03
2018-07-09T11:59:08.834Z,68.06
2018-07-09T12:00:08.780Z,67.87
2018-07-09T12:01:08.789Z,67.97
2018-07-09T12:02:08.799Z,67.49
2018-07-09T12:03:09.414Z,67.39
2018-07-09T12:04:08.758Z,67.58
2018-07-09T12:05:08.748Z,68.16
2018-07-09T12:06:08.767Z,68.16
2018-07-09T12:07:08.757Z,68.38
2018-07-09T12:08:08.750Z,68.35
2018-07-09T12:09:08.708Z,67.81
2018-07-09T12:10:08.733Z,68.10
2018-07-09T12:11:08.711Z,68.23
2018-07-09T12:12:08.784Z,66.78
2018-07-09T12:13:10.394Z,66.65
2018-07-09T12:14:09.402Z,65.91
2018-07-09T12:15:08.696Z,66.97
2018-07-09T12:16:08.684Z,65.81
2018-07-09T12:17:08.692Z,65.98
2018-07-09T12:18:08.672Z,65.98
2018-07-09T12:19:08.729Z,66.07
2018-07-09T12:20:08.656Z,66.36
2018-07-09T12:21:08.658Z,66.78
2018-07-09T12:22:08.664Z,65.98
2018-07-09T12:23:08.637Z,65.78
2018-07-09T12:24:08.796Z,66.27
2018-07-09T12:25:08.658Z,66.17
2018-07-09T12:26:08.629Z,66.75
2018-07-09T12:27:08.888Z,67.13
2018-07-09T12:29:41.900Z,67.16
2018-07-09T12:30:42.818Z,67.07
2018-07-09T12:31:42.805Z,66.78
2018-07-09T12:32:41.893Z,66.11
2018-07-09T12:33:41.934Z,65.63
2018-07-09T12:34:41.845Z,64.73
2018-07-09T12:35:41.840Z,64.76
2018-07-09T12:36:41.847Z,65.24
2018-07-09T12:37:41.825Z,65.30
2018-07-09T12:38:41.830Z,65.11
2018-07-09T12:39:41.818Z,64.82
2018-07-09T12:40:41.806Z,64.25
2018-07-09T12:41:41.810Z,64.73
2018-07-09T12:42:41.800Z,64.92
2018-07-09T12:43:41.829Z,64.43
2018-07-09T12:44:41.789Z,64.34
2018-07-09T12:45:41.826Z,64.82
2018-07-09T12:46:41.768Z,64.82
2018-07-09T12:47:41.773Z,64.63
2018-07-09T12:48:41.751Z,64.73
2018-07-09T12:49:41.769Z,64.43
2018-07-09T12:50:41.747Z,64.82
2018-07-09T12:51:41.756Z,64.34
2018-07-09T12:52:41.730Z,64.34
2018-07-09T12:53:41.714Z,63.95
2018-07-09T12:54:41.743Z,65.01
2018-07-09T12:55:41.742Z,64.92
2018-07-09T12:56:41.728Z,65.30
2018-07-09T12:57:41.706Z,64.63
2018-07-09T12:58:41.706Z,64.86
2018-07-09T12:59:41.700Z,65.63
2018-07-09T13:00:42.448Z,65.72
2018-07-09T13:01:41.727Z,64.66
2018-07-09T13:02:41.674Z,65.43
2018-07-09T13:03:41.652Z,64.66
2018-07-09T13:04:42.334Z,64.95